createdAt,value
2022-08-21T00:01:54.765Z,4.73
2022-08-21T00:04:23.054Z,4.30
2022-08-21T00:06:56.806Z,4.57
2022-08-21T00:09:24.038Z,4.50
2022-08-21T00:11:50.984Z,4.80
2022-08-21T00:14:18.157Z,4.67
2022-08-21T00:16:45.596Z,4.13
2022-08-21T00:19:13.029Z,4.80
2022-08-21T00:21:40.410Z,4.37
2022-08-21T00:24:12.381Z,4.50
2022-08-21T00:26:39.937Z,4.47
2022-08-21T00:29:06.853Z,4.60
2022-08-21T00:31:34.012Z,4.60
2022-08-21T00:34:01.398Z,4.60
2022-08-21T00:36:29.069Z,4.47
2022-08-21T00:38:56.734Z,4.63
2022-08-21T00:41:38.259Z,4.40
2022-08-21T00:44:12.757Z,4.97
2022-08-21T00:46:41.022Z,4.40
2022-08-21T00:49:10.164Z,4.47
2022-08-21T00:51:59.485Z,4.83
2022-08-21T00:54:30.592Z,4.53
2022-08-21T00:57:03.415Z,4.33
2022-08-21T00:59:35.618Z,4.53
2022-08-21T01:02:03.523Z,4.77
2022-08-21T01:04:30.503Z,4.57
2022-08-21T01:06:57.874Z,4.70
2022-08-21T01:09:24.872Z,4.47
2022-08-21T01:11:52.084Z,4.47
2022-08-21T01:14:20.985Z,4.60
2022-08-21T01:16:50.917Z,4.67
2022-08-21T01:19:20.738Z,4.43
2022-08-21T01:21:47.983Z,4.77
2022-08-21T01:24:15.120Z,4.60
2022-08-21T01:26:43.468Z,4.60
2022-08-21T01:29:16.557Z,4.30
2022-08-21T01:31:44.275Z,4.37
2022-08-21T01:34:12.007Z,5.10
2022-08-21T01:36:39.182Z,5.10
2022-08-21T01:39:06.877Z,4.50
2022-08-21T01:41:34.388Z,4.63
2022-08-21T01:44:01.603Z,4.63
2022-08-21T01:46:28.588Z,4.33
2022-08-21T01:48:55.785Z,4.47
2022-08-21T01:51:22.778Z,5.13
2022-08-21T01:53:49.896Z,4.83
2022-08-21T01:56:17.375Z,4.80
2022-08-21T01:58:47.589Z,5.03
2022-08-21T02:01:15.295Z,4.77
2022-08-21T02:03:43.092Z,4.73
2022-08-21T02:06:15.994Z,5.40
2022-08-21T02:08:43.185Z,4.47
2022-08-21T02:11:10.117Z,4.93
2022-08-21T02:13:37.128Z,4.33
2022-08-21T02:16:04.626Z,4.83
2022-08-21T02:18:31.905Z,5.20
2022-08-21T02:20:58.905Z,5.00
2022-08-21T02:23:27.071Z,4.47
2022-08-21T02:26:06.001Z,4.83
2022-08-21T02:28:34.130Z,5.30
2022-08-21T02:31:02.165Z,4.90
2022-08-21T02:33:29.593Z,4.63
2022-08-21T02:35:57.427Z,4.97
2022-08-21T02:38:30.371Z,5.30
2022-08-21T02:40:58.325Z,5.47
2022-08-21T02:43:27.741Z,4.80
2022-08-21T02:45:57.144Z,5.37
2022-08-21T02:48:27.395Z,4.97
2022-08-21T02:51:05.190Z,5.30
2022-08-21T02:53:33.716Z,5.03
2022-08-21T02:56:03.110Z,4.90
2022-08-21T02:58:33.735Z,5.07
2022-08-21T03:01:01.136Z,4.80
2022-08-21T03:03:30.038Z,5.10
2022-08-21T03:05:57.683Z,4.77
2022-08-21T03:08:26.480Z,5.17
2022-08-21T03:10:54.893Z,5.03
2022-08-21T03:13:22.062Z,5.40
2022-08-21T03:15:50.703Z,5.13
2022-08-21T03:18:18.380Z,5.10
2022-08-21T03:20:48.610Z,5.10
2022-08-21T03:23:18.539Z,5.47
2022-08-21T03:25:48.444Z,5.23
2022-08-21T03:28:19.573Z,4.90
2022-08-21T03:30:50.159Z,5.30
2022-08-21T03:33:18.032Z,5.37
2022-08-21T03:35:57.535Z,5.20
2022-08-21T03:38:26.660Z,5.67
2022-08-21T03:40:54.319Z,5.00
2022-08-21T03:43:22.961Z,5.73
2022-08-21T03:45:50.045Z,5.90
2022-08-21T03:48:20.906Z,5.67
2022-08-21T03:50:50.206Z,5.23
2022-08-21T03:53:18.081Z,5.60
2022-08-21T03:55:47.626Z,5.10
2022-08-21T03:58:17.919Z,5.07
2022-08-21T04:00:46.714Z,5.47
2022-08-21T04:03:13.888Z,5.37
2022-08-21T04:05:41.957Z,5.23
2022-08-21T04:08:09.316Z,5.23
2022-08-21T04:10:39.120Z,5.70
2022-08-21T04:13:08.217Z,5.50
2022-08-21T04:15:36.175Z,4.70
2022-08-21T04:18:04.578Z,6.03
2022-08-21T04:20:31.814Z,5.70
2022-08-21T04:22:58.906Z,4.80
2022-08-21T04:25:29.089Z,5.23
2022-08-21T04:27:56.117Z,5.53
2022-08-21T04:30:28.294Z,5.30
2022-08-21T04:32:58.689Z,5.03
2022-08-21T04:35:27.986Z,5.27
2022-08-21T04:37:55.399Z,5.30
2022-08-21T04:40:25.747Z,5.00
2022-08-21T04:42:55.729Z,4.93
2022-08-21T04:45:24.741Z,5.30
2022-08-21T04:47:57.410Z,5.37
2022-08-21T04:50:39.528Z,4.97
2022-08-21T04:53:09.617Z,4.83
2022-08-21T04:55:38.118Z,4.87
2022-08-21T04:58:07.740Z,5.03
2022-08-21T05:00:35.546Z,4.70
2022-08-21T05:03:05.705Z,4.70
2022-08-21T05:05:33.250Z,4.90
2022-08-21T05:08:03.518Z,4.77
2022-08-21T05:10:32.503Z,5.00
2022-08-21T05:13:00.919Z,4.50
2022-08-21T05:15:28.469Z,5.00
2022-08-21T05:18:00.661Z,4.50
2022-08-21T05:20:30.180Z,4.60
2022-08-21T05:22:57.413Z,4.80
2022-08-21T05:25:24.583Z,4.73
2022-08-21T05:27:52.440Z,4.57
2022-08-21T05:30:21.053Z,5.23
2022-08-21T05:32:48.814Z,4.53
2022-08-21T05:35:15.900Z,5.00
2022-08-21T05:37:43.104Z,4.97
2022-08-21T05:40:22.318Z,4.80
2022-08-21T05:42:55.820Z,5.10
2022-08-21T05:45:42.994Z,5.03
2022-08-21T05:48:19.825Z,5.37
2022-08-21T05:50:48.022Z,4.57
2022-08-21T05:53:16.803Z,5.10
2022-08-21T05:55:46.263Z,5.43
2022-08-21T05:58:21.050Z,4.57
2022-08-21T06:00:49.634Z,5.63
2022-08-21T06:03:23.524Z,4.80
2022-08-21T06:05:50.852Z,4.90
2022-08-21T06:08:18.821Z,5.20
2022-08-21T06:10:47.432Z,4.97
2022-08-21T06:13:16.034Z,4.97
2022-08-21T06:15:43.189Z,5.00
2022-08-21T06:18:10.481Z,4.80
2022-08-21T06:20:38.029Z,4.45
2022-08-21T06:23:05.754Z,4.53
2022-08-21T06:25:33.166Z,5.03
2022-08-21T06:28:06.918Z,5.00
2022-08-21T06:30:34.489Z,4.70
2022-08-21T06:33:02.496Z,4.65
2022-08-21T06:35:30.762Z,4.68
2022-08-21T06:37:58.514Z,4.45
2022-08-21T06:40:27.422Z,4.68
2022-08-21T06:42:58.732Z,4.38
2022-08-21T06:45:26.267Z,4.50
2022-08-21T06:47:57.093Z,4.15
2022-08-21T06:50:24.075Z,4.25
2022-08-21T06:52:58.732Z,4.45
2022-08-21T06:55:29.113Z,4.53
2022-08-21T06:57:56.282Z,4.35
2022-08-21T07:00:23.334Z,4.80
2022-08-21T07:02:50.730Z,4.13
2022-08-21T07:05:18.812Z,4.93
2022-08-21T07:07:46.962Z,4.15
2022-08-21T07:10:22.128Z,4.72
2022-08-21T07:12:59.159Z,4.43
2022-08-21T07:15:30.562Z,4.40
2022-08-21T07:17:59.396Z,4.45
2022-08-21T07:20:28.156Z,4.65
2022-08-21T07:22:56.140Z,4.30
2022-08-21T07:25:23.209Z,4.68
2022-08-21T07:27:50.276Z,4.50
2022-08-21T07:30:17.694Z,5.22
2022-08-21T07:32:44.949Z,4.38
2022-08-21T07:35:12.298Z,4.35
2022-08-21T07:37:39.494Z,4.53
2022-08-21T07:40:07.004Z,4.57
2022-08-21T07:42:34.093Z,4.63
2022-08-21T07:45:01.213Z,4.72
2022-08-21T07:47:41.311Z,4.45
2022-08-21T07:50:14.566Z,4.97
2022-08-21T07:52:43.236Z,5.28
2022-08-21T07:55:18.804Z,4.65
2022-08-21T07:57:46.657Z,4.68
2022-08-21T08:00:17.103Z,4.82
2022-08-21T08:02:47.629Z,4.75
2022-08-21T08:05:14.742Z,4.68
2022-08-21T08:07:42.013Z,4.47
2022-08-21T08:10:10.281Z,4.10
2022-08-21T08:12:43.834Z,4.80
2022-08-21T08:15:15.206Z,4.95
2022-08-21T08:17:43.117Z,4.10
2022-08-21T08:20:11.843Z,4.28
2022-08-21T08:22:40.023Z,4.60
2022-08-21T08:25:09.785Z,4.35
2022-08-21T08:27:37.410Z,4.57
2022-08-21T08:30:06.300Z,5.03
2022-08-21T08:32:34.372Z,4.45
2022-08-21T08:35:01.620Z,4.57
2022-08-21T08:37:34.197Z,4.40
2022-08-21T08:40:03.460Z,4.57
2022-08-21T08:42:34.996Z,4.43
2022-08-21T08:45:12.891Z,3.83
2022-08-21T08:47:45.594Z,4.13
2022-08-21T08:50:18.543Z,4.43
2022-08-21T08:53:33.018Z,4.15
2022-08-21T08:56:02.930Z,4.07
2022-08-21T08:58:36.381Z,4.30
2022-08-21T09:01:11.919Z,4.03
2022-08-21T09:03:40.816Z,3.60
2022-08-21T09:06:28.160Z,3.72
2022-08-21T09:09:17.679Z,4.30
2022-08-21T09:11:56.524Z,3.97
2022-08-21T09:14:27.356Z,3.70
2022-08-21T09:17:05.081Z,3.50
2022-08-21T09:19:48.680Z,3.50
2022-08-21T09:22:31.602Z,3.10
2022-08-21T09:25:24.095Z,3.08
2022-08-21T09:27:51.777Z,3.15
2022-08-21T09:30:24.870Z,3.47
2022-08-21T09:32:51.813Z,3.28
2022-08-21T09:35:22.317Z,3.50
2022-08-21T09:38:03.889Z,3.35
2022-08-21T09:40:45.134Z,3.40
2022-08-21T09:43:12.142Z,3.00
2022-08-21T09:45:42.197Z,3.38
2022-08-21T09:48:26.346Z,3.22
2022-08-21T09:51:06.108Z,3.40
2022-08-21T09:53:36.063Z,3.35
2022-08-21T09:56:35.664Z,3.17
2022-08-21T09:59:13.626Z,3.83
2022-08-21T10:01:52.106Z,3.05
2022-08-21T10:04:30.749Z,3.53
2022-08-21T10:07:12.045Z,3.55
2022-08-21T10:09:39.298Z,3.38
2022-08-21T10:12:29.790Z,3.10
2022-08-21T10:14:59.565Z,3.50
2022-08-21T10:18:03.252Z,3.38
2022-08-21T10:20:50.466Z,3.30
2022-08-21T10:23:34.466Z,3.78
2022-08-21T10:26:30.141Z,3.30
2022-08-21T10:29:06.300Z,3.63
2022-08-21T10:31:51.963Z,3.75
2022-08-21T10:34:32.493Z,3.13
2022-08-21T10:37:40.896Z,3.17
2022-08-21T10:40:11.565Z,3.20
2022-08-21T10:42:59.850Z,3.13
2022-08-21T10:45:51.640Z,3.60
2022-08-21T10:48:50.733Z,3.20
2022-08-21T10:51:43.183Z,3.38
2022-08-21T10:54:23.367Z,3.13
2022-08-21T10:56:55.463Z,4.55
2022-08-21T10:59:38.447Z,3.80
2022-08-21T11:02:20.969Z,3.35
2022-08-21T11:05:02.734Z,3.08
2022-08-21T11:07:35.338Z,2.90
2022-08-21T11:10:15.729Z,3.42
2022-08-21T11:13:01.488Z,3.17
2022-08-21T11:15:45.968Z,3.38
2022-08-21T11:18:37.499Z,3.08
2022-08-21T11:21:10.730Z,3.20
2022-08-21T11:23:55.585Z,3.13
2022-08-21T11:26:34.876Z,3.28
2022-08-21T11:29:30.689Z,3.00
2022-08-21T11:32:10.430Z,3.20
2022-08-21T11:34:52.635Z,2.78
2022-08-21T11:37:40.606Z,2.90
2022-08-21T11:40:20.053Z,3.10
2022-08-21T11:42:52.671Z,2.88
2022-08-21T11:45:28.379Z,3.13
2022-08-21T11:47:56.692Z,3.33
2022-08-21T11:50:35.605Z,3.00
2022-08-21T11:53:03.316Z,2.72
2022-08-21T11:55:37.658Z,2.60
2022-08-21T11:58:15.610Z,2.80
2022-08-21T12:00:58.533Z,2.65
2022-08-21T12:03:35.521Z,2.65
2022-08-21T12:06:07.506Z,2.42
2022-08-21T12:08:40.082Z,2.80
2022-08-21T12:11:30.685Z,2.83
2022-08-21T12:14:07.667Z,2.90
2022-08-21T12:16:38.741Z,2.60
2022-08-21T12:19:25.639Z,2.47
2022-08-21T12:21:58.834Z,3.00
2022-08-21T12:24:28.837Z,2.60
2022-08-21T12:27:16.194Z,2.70
2022-08-21T12:30:08.768Z,2.92
2022-08-21T12:32:55.196Z,3.00
2022-08-21T12:35:26.736Z,2.83
2022-08-21T12:38:06.124Z,3.88
2022-08-21T12:40:43.613Z,2.60
2022-08-21T12:43:22.609Z,2.67
2022-08-21T12:45:52.053Z,3.17
2022-08-21T12:48:25.208Z,2.65
2022-08-21T12:51:00.196Z,2.90
2022-08-21T12:53:30.329Z,2.53
2022-08-21T12:56:02.327Z,2.90
2022-08-21T12:58:29.886Z,2.85
2022-08-21T13:01:07.575Z,2.70
2022-08-21T13:03:38.904Z,2.67
2022-08-21T13:06:06.625Z,2.83
2022-08-21T13:08:40.789Z,2.85
2022-08-21T13:11:14.972Z,2.78
2022-08-21T13:13:47.181Z,2.88
2022-08-21T13:16:29.660Z,2.63
2022-08-21T13:19:02.585Z,2.78
2022-08-21T13:21:34.712Z,2.60
2022-08-21T13:27:22.006Z,2.80
2022-08-21T13:29:54.193Z,2.50
2022-08-21T13:32:26.681Z,2.60
2022-08-21T13:34:54.088Z,2.50
2022-08-21T13:37:24.144Z,2.50
2022-08-21T13:39:53.870Z,2.70
2022-08-21T13:42:21.285Z,2.78
2022-08-21T13:44:49.091Z,3.08
2022-08-21T13:47:18.889Z,2.90
2022-08-21T13:49:48.561Z,3.10
2022-08-21T13:52:22.955Z,2.90
2022-08-21T13:55:07.868Z,2.90
2022-08-21T13:57:37.181Z,3.17
2022-08-21T14:00:29.441Z,2.72
2022-08-21T14:03:09.735Z,2.80
2022-08-21T14:05:43.821Z,2.75
2022-08-21T14:08:30.213Z,2.80
2022-08-21T14:10:58.679Z,2.90
2022-08-21T14:13:40.368Z,2.65
2022-08-21T14:16:26.401Z,2.65
2022-08-21T14:19:08.874Z,2.92
2022-08-21T14:21:39.457Z,2.80
2022-08-21T14:24:11.486Z,2.70
2022-08-21T14:27:02.970Z,2.80
2022-08-21T14:29:36.240Z,2.97
2022-08-21T14:32:32.801Z,3.45
2022-08-21T14:35:00.078Z,2.63
2022-08-21T14:37:27.321Z,2.65
2022-08-21T14:39:54.418Z,2.72
2022-08-21T14:42:21.816Z,2.85
2022-08-21T14:44:49.012Z,2.92
2022-08-21T14:47:16.091Z,2.80
2022-08-21T14:49:43.806Z,2.75
2022-08-21T14:52:12.659Z,2.42
2022-08-21T14:54:39.581Z,2.35
2022-08-21T14:57:10.766Z,3.03
2022-08-21T14:59:39.058Z,2.47
2022-08-21T15:02:07.090Z,2.63
2022-08-21T15:04:35.196Z,2.50
2022-08-21T15:07:02.581Z,2.88
2022-08-21T15:09:29.598Z,2.60
2022-08-21T15:11:58.997Z,3.30
2022-08-21T15:14:28.934Z,2.75
2022-08-21T15:16:56.302Z,2.60
2022-08-21T15:19:23.648Z,2.25
2022-08-21T15:21:50.807Z,2.70
2022-08-21T15:24:17.984Z,3.05
2022-08-21T15:26:46.389Z,2.60
2022-08-21T15:29:13.566Z,2.35
2022-08-21T15:31:59.326Z,2.80
2022-08-21T15:34:29.529Z,2.42
2022-08-21T15:36:58.284Z,2.60
2022-08-21T15:39:30.925Z,2.67
2022-08-21T15:42:00.146Z,2.55
2022-08-21T15:44:39.282Z,3.05
2022-08-21T15:47:12.086Z,2.92
2022-08-21T15:49:39.124Z,3.17
2022-08-21T15:52:06.173Z,3.00
2022-08-21T15:54:33.328Z,3.13
2022-08-21T15:57:00.288Z,3.22
2022-08-21T15:59:28.001Z,3.67
2022-08-21T16:01:55.233Z,3.45
2022-08-21T16:04:28.189Z,3.45
2022-08-21T16:07:03.151Z,3.42
2022-08-21T16:09:33.749Z,3.50
2022-08-21T16:12:01.745Z,3.78
2022-08-21T16:14:31.642Z,3.58
2022-08-21T16:16:59.257Z,3.85
2022-08-21T16:19:29.006Z,3.85
2022-08-21T16:21:56.005Z,3.60
2022-08-21T16:24:23.222Z,3.67
2022-08-21T16:26:57.685Z,3.58
2022-08-21T16:29:30.380Z,3.83
2022-08-21T16:31:57.369Z,3.90
2022-08-21T16:34:24.951Z,4.15
2022-08-21T16:36:52.179Z,3.72
2022-08-21T16:39:19.444Z,3.75
2022-08-21T16:41:50.821Z,3.50
2022-08-21T16:44:19.710Z,3.97
2022-08-21T16:46:46.751Z,3.38
2022-08-21T16:49:13.801Z,3.55
2022-08-21T16:51:40.998Z,4.10
2022-08-21T16:54:07.994Z,4.22
2022-08-21T16:56:39.497Z,3.88
2022-08-21T16:59:07.312Z,4.00
2022-08-21T17:01:35.455Z,3.58
2022-08-21T17:04:03.439Z,3.58
2022-08-21T17:06:31.778Z,3.92
2022-08-21T17:09:01.077Z,4.43
2022-08-21T17:11:37.901Z,4.30
2022-08-21T17:14:25.722Z,4.00
2022-08-21T17:16:55.645Z,3.78
2022-08-21T17:19:27.130Z,4.05
2022-08-21T17:21:54.069Z,3.75
2022-08-21T17:24:21.316Z,4.05
2022-08-21T17:26:49.293Z,4.00
2022-08-21T17:29:28.337Z,3.63
2022-08-21T17:31:56.723Z,4.55
2022-08-21T17:34:24.331Z,3.78
2022-08-21T17:36:58.264Z,4.07
2022-08-21T17:39:26.652Z,3.90
2022-08-21T17:41:57.971Z,3.92
2022-08-21T17:44:25.572Z,4.28
2022-08-21T17:46:52.503Z,3.53
2022-08-21T17:49:19.459Z,4.03
2022-08-21T17:51:46.570Z,4.93
2022-08-21T17:54:13.520Z,3.83
2022-08-21T17:56:42.054Z,4.30
2022-08-21T17:59:10.552Z,4.00
2022-08-21T18:01:43.265Z,4.38
2022-08-21T18:04:11.702Z,4.15
2022-08-21T18:06:38.798Z,3.95
2022-08-21T18:09:06.321Z,4.47
2022-08-21T18:11:35.622Z,4.00
2022-08-21T18:14:07.588Z,4.28
2022-08-21T18:16:37.475Z,4.22
2022-08-21T18:19:09.493Z,4.47
2022-08-21T18:21:36.809Z,4.30
2022-08-21T18:24:04.252Z,4.28
2022-08-21T18:26:34.798Z,4.13
2022-08-21T18:29:02.498Z,4.45
2022-08-21T18:31:32.127Z,4.43
2022-08-21T18:34:01.033Z,4.78
2022-08-21T18:36:29.291Z,4.18
2022-08-21T18:39:13.644Z,4.35
2022-08-21T18:41:45.828Z,3.90
2022-08-21T18:44:14.652Z,4.25
2022-08-21T18:46:45.734Z,4.60
2022-08-21T18:49:12.895Z,4.72
2022-08-21T18:51:43.502Z,5.30
2022-08-21T18:54:12.994Z,5.33
2022-08-21T18:56:41.718Z,4.90
2022-08-21T18:59:10.363Z,4.90
2022-08-21T19:01:38.198Z,4.93
2022-08-21T19:06:54.795Z,4.80
2022-08-21T19:09:21.923Z,5.07
2022-08-21T19:11:49.356Z,4.83
2022-08-21T19:14:18.855Z,5.43
2022-08-21T19:16:50.442Z,5.40
2022-08-21T19:19:18.149Z,5.20
2022-08-21T19:21:47.110Z,5.23
2022-08-21T19:24:17.929Z,5.10
2022-08-21T19:26:45.433Z,4.90
2022-08-21T19:29:15.316Z,4.67
2022-08-21T19:31:44.625Z,4.47
2022-08-21T19:34:16.529Z,5.30
2022-08-21T19:36:44.638Z,4.97
2022-08-21T19:39:13.432Z,5.00
2022-08-21T19:41:45.483Z,5.60
2022-08-21T19:44:16.980Z,5.43
2022-08-21T19:46:48.153Z,5.20
2022-08-21T19:49:21.178Z,5.73
2022-08-21T19:51:49.709Z,6.00
2022-08-21T19:54:25.992Z,5.20
2022-08-21T19:56:56.213Z,5.37
2022-08-21T19:59:25.523Z,4.97
2022-08-21T20:01:52.966Z,5.00
2022-08-21T20:04:20.976Z,5.63
2022-08-21T20:06:48.103Z,5.33
2022-08-21T20:09:16.248Z,6.27
2022-08-21T20:11:48.333Z,5.87
2022-08-21T20:14:17.997Z,5.97
2022-08-21T20:16:47.403Z,6.20
2022-08-21T20:19:14.732Z,6.20
2022-08-21T20:21:43.582Z,5.40
2022-08-21T20:24:14.707Z,6.03
2022-08-21T20:26:49.301Z,5.53
2022-08-21T20:29:24.570Z,6.33
2022-08-21T20:32:00.721Z,5.93
2022-08-21T20:34:27.917Z,6.57
2022-08-21T20:36:54.902Z,6.87
2022-08-21T20:39:23.967Z,7.53
2022-08-21T20:41:53.099Z,8.20
2022-08-21T20:44:20.746Z,9.97
2022-08-21T20:46:47.953Z,10.33
2022-08-21T20:49:23.989Z,11.17
2022-08-21T20:51:53.261Z,11.33
2022-08-21T20:54:35.504Z,11.80
2022-08-21T20:57:24.114Z,14.27
2022-08-21T21:00:05.332Z,11.67
2022-08-21T21:02:53.765Z,13.47
2022-08-21T21:05:25.791Z,11.93
2022-08-21T21:07:55.777Z,10.37
2022-08-21T21:10:48.825Z,10.67
2022-08-21T21:13:20.176Z,9.50
2022-08-21T21:15:52.038Z,9.17
2022-08-21T21:18:40.783Z,8.00
2022-08-21T21:21:15.376Z,7.43
2022-08-21T21:23:56.638Z,7.77
2022-08-21T21:26:48.919Z,7.90
2022-08-21T21:29:37.664Z,7.53
2022-08-21T21:32:09.083Z,7.03
2022-08-21T21:34:46.496Z,8.00
2022-08-21T21:37:25.295Z,7.17
2022-08-21T21:40:04.959Z,7.23
2022-08-21T21:43:10.878Z,7.87
2022-08-21T21:46:02.276Z,6.80
2022-08-21T21:48:55.017Z,6.97
2022-08-21T21:52:02.131Z,7.03
2022-08-21T21:54:51.890Z,6.67
2022-08-21T21:58:16.702Z,6.37
2022-08-21T22:00:52.079Z,6.77
2022-08-21T22:03:29.616Z,7.27
2022-08-21T22:06:15.078Z,6.53
2022-08-21T22:09:09.353Z,7.37
2022-08-21T22:11:55.340Z,7.47
2022-08-21T22:14:34.357Z,6.93
2022-08-21T22:17:35.599Z,6.90
2022-08-21T22:20:13.121Z,6.80
2022-08-21T22:22:44.005Z,6.80
2022-08-21T22:25:36.585Z,6.27
2022-08-21T22:28:13.679Z,7.03
2022-08-21T22:30:47.627Z,7.17
2022-08-21T22:33:23.498Z,6.93
2022-08-21T22:35:52.918Z,7.33
2022-08-21T22:38:23.295Z,7.10
2022-08-21T22:40:50.977Z,7.10
2022-08-21T22:43:19.862Z,6.63
2022-08-21T22:46:00.838Z,7.30
2022-08-21T22:48:32.238Z,6.30
2022-08-21T22:51:12.524Z,6.53
2022-08-21T22:53:43.657Z,6.50
2022-08-21T22:56:32.108Z,7.37
2022-08-21T22:59:03.286Z,7.07
2022-08-21T23:01:40.262Z,6.40
2022-08-21T23:04:19.541Z,7.80
2022-08-21T23:06:55.315Z,6.43
2022-08-21T23:09:28.394Z,6.90
2022-08-21T23:12:01.260Z,6.40
2022-08-21T23:14:31.941Z,6.40
2022-08-21T23:17:32.502Z,6.43
2022-08-21T23:20:05.309Z,6.30
2022-08-21T23:22:51.729Z,6.90
2022-08-21T23:25:24.533Z,6.43
2022-08-21T23:28:20.935Z,6.40
2022-08-21T23:31:01.578Z,6.80
2022-08-21T23:33:40.605Z,6.33
2022-08-21T23:36:34.045Z,6.43
2022-08-21T23:39:20.617Z,6.23
2022-08-21T23:42:05.932Z,6.20
2022-08-21T23:44:47.113Z,6.00
2022-08-21T23:47:51.083Z,6.00
2022-08-21T23:50:29.549Z,6.43
2022-08-21T23:53:13.042Z,6.80
2022-08-21T23:55:43.692Z,7.57
2022-08-21T23:58:29.972Z,6.50
